Nenjiang, China
Current Conditions -  °F | °C
As of 3:00 AM on Wednesday 22 Oct 2014 (Local Time) from UHBB Reporting Station
Clear Clear  
Wind Chill:   Ceiling: Unl
Heat Index: 14°   Visibility: 6mi
Dew Point:   Wind: 4mph
Humidity: 62%   Direction: NA
Pressure: 30.03"   Gusts: NA
Location:  49.18°N, 125.23°E
Report Text: UHBB 211900Z VRB02MPS CAVOK M10/M16 Q1017 NOSIG RMK QFE745/099436090060
Loading
Personal Weather Stations






























Interactive Weather Map
Tropical Storm Tracking
New forecast layout! Learn more

10-Day Weather Forecast

Advertisements
Track Severe Weather on mobile